sensor_id;sensor_type;location;lat;lon;timestamp;P1;durP1;ratioP1;P2;durP2;ratioP2
10450;SDS011;5273;51.290;6.918;2022-08-21T00:01:52;11.55;;;5.10;;
10450;SDS011;5273;51.290;6.918;2022-08-21T00:04:19;11.10;;;5.32;;
10450;SDS011;5273;51.290;6.918;2022-08-21T00:06:47;11.90;;;5.78;;
10450;SDS011;5273;51.290;6.918;2022-08-21T00:09:15;10.50;;;6.07;;
10450;SDS011;5273;51.290;6.918;2022-08-21T00:11:42;9.00;;;5.75;;
10450;SDS011;5273;51.290;6.918;2022-08-21T00:14:09;12.32;;;6.13;;
10450;SDS011;5273;51.290;6.918;2022-08-21T00:16:37;9.38;;;5.90;;
10450;SDS011;5273;51.290;6.918;2022-08-21T00:19:05;10.38;;;5.68;;
10450;SDS011;5273;51.290;6.918;2022-08-21T00:21:32;8.85;;;5.88;;
10450;SDS011;5273;51.290;6.918;2022-08-21T00:24:00;7.40;;;5.30;;
10450;SDS011;5273;51.290;6.918;2022-08-21T00:26:28;13.55;;;5.95;;
10450;SDS011;5273;51.290;6.918;2022-08-21T00:28:55;11.52;;;6.07;;
10450;SDS011;5273;51.290;6.918;2022-08-21T00:31:22;12.48;;;5.60;;
10450;SDS011;5273;51.290;6.918;2022-08-21T00:33:49;11.38;;;5.45;;
10450;SDS011;5273;51.290;6.918;2022-08-21T00:36:16;8.77;;;5.85;;
10450;SDS011;5273;51.290;6.918;2022-08-21T00:38:43;9.43;;;5.50;;
10450;SDS011;5273;51.290;6.918;2022-08-21T00:41:10;8.98;;;5.55;;
10450;SDS011;5273;51.290;6.918;2022-08-21T00:43:39;8.05;;;5.40;;
10450;SDS011;5273;51.290;6.918;2022-08-21T00:46:06;13.68;;;5.40;;
10450;SDS011;5273;51.290;6.918;2022-08-21T00:48:33;12.23;;;5.53;;
10450;SDS011;5273;51.290;6.918;2022-08-21T00:51:02;13.15;;;5.22;;
10450;SDS011;5273;51.290;6.918;2022-08-21T00:53:32;8.23;;;5.32;;
10450;SDS011;5273;51.290;6.918;2022-08-21T00:56:02;11.27;;;5.60;;
10450;SDS011;5273;51.290;6.918;2022-08-21T00:58:30;12.30;;;5.32;;
10450;SDS011;5273;51.290;6.918;2022-08-21T01:01:03;8.30;;;5.38;;
10450;SDS011;5273;51.290;6.918;2022-08-21T01:03:31;12.27;;;5.32;;
10450;SDS011;5273;51.290;6.918;2022-08-21T01:06:00;9.13;;;4.95;;
10450;SDS011;5273;51.290;6.918;2022-08-21T01:08:28;9.95;;;5.25;;
10450;SDS011;5273;51.290;6.918;2022-08-21T01:10:55;9.38;;;5.53;;
10450;SDS011;5273;51.290;6.918;2022-08-21T01:13:25;7.78;;;5.28;;
10450;SDS011;5273;51.290;6.918;2022-08-21T01:15:54;12.02;;;5.70;;
10450;SDS011;5273;51.290;6.918;2022-08-21T01:18:23;6.20;;;5.00;;
10450;SDS011;5273;51.290;6.918;2022-08-21T01:21:02;10.77;;;5.53;;
10450;SDS011;5273;51.290;6.918;2022-08-21T01:23:32;8.15;;;5.50;;
10450;SDS011;5273;51.290;6.918;2022-08-21T01:25:59;11.73;;;5.60;;
10450;SDS011;5273;51.290;6.918;2022-08-21T01:28:26;9.68;;;5.07;;
10450;SDS011;5273;51.290;6.918;2022-08-21T01:30:56;11.25;;;5.60;;
10450;SDS011;5273;51.290;6.918;2022-08-21T01:33:24;10.70;;;5.80;;
10450;SDS011;5273;51.290;6.918;2022-08-21T01:35:51;8.25;;;5.80;;
10450;SDS011;5273;51.290;6.918;2022-08-21T01:38:20;8.95;;;5.88;;
10450;SDS011;5273;51.290;6.918;2022-08-21T01:40:47;10.32;;;6.20;;
10450;SDS011;5273;51.290;6.918;2022-08-21T01:43:13;10.10;;;5.13;;
10450;SDS011;5273;51.290;6.918;2022-08-21T01:45:40;8.48;;;5.40;;
10450;SDS011;5273;51.290;6.918;2022-08-21T01:48:07;9.07;;;5.55;;
10450;SDS011;5273;51.290;6.918;2022-08-21T01:50:34;12.38;;;6.13;;
10450;SDS011;5273;51.290;6.918;2022-08-21T01:53:01;12.27;;;5.82;;
10450;SDS011;5273;51.290;6.918;2022-08-21T01:55:29;8.27;;;5.65;;
10450;SDS011;5273;51.290;6.918;2022-08-21T01:57:57;11.82;;;5.70;;
10450;SDS011;5273;51.290;6.918;2022-08-21T02:00:25;11.65;;;5.93;;
10450;SDS011;5273;51.290;6.918;2022-08-21T02:02:52;12.50;;;5.57;;
10450;SDS011;5273;51.290;6.918;2022-08-21T02:05:19;11.10;;;5.82;;
10450;SDS011;5273;51.290;6.918;2022-08-21T02:07:47;10.63;;;5.50;;
10450;SDS011;5273;51.290;6.918;2022-08-21T02:10:17;10.25;;;5.30;;
10450;SDS011;5273;51.290;6.918;2022-08-21T02:12:48;14.55;;;6.10;;
10450;SDS011;5273;51.290;6.918;2022-08-21T02:15:15;11.50;;;5.88;;
10450;SDS011;5273;51.290;6.918;2022-08-21T02:17:44;9.43;;;5.60;;
10450;SDS011;5273;51.290;6.918;2022-08-21T02:20:15;9.90;;;5.53;;
10450;SDS011;5273;51.290;6.918;2022-08-21T02:22:43;10.38;;;6.20;;
10450;SDS011;5273;51.290;6.918;2022-08-21T02:25:10;13.05;;;6.10;;
10450;SDS011;5273;51.290;6.918;2022-08-21T02:27:38;8.23;;;5.75;;
10450;SDS011;5273;51.290;6.918;2022-08-21T02:30:09;9.70;;;6.05;;
10450;SDS011;5273;51.290;6.918;2022-08-21T02:32:38;9.98;;;6.35;;
10450;SDS011;5273;51.290;6.918;2022-08-21T02:35:05;10.40;;;6.03;;
10450;SDS011;5273;51.290;6.918;2022-08-21T02:37:33;7.75;;;5.43;;
10450;SDS011;5273;51.290;6.918;2022-08-21T02:40:00;11.02;;;6.13;;
10450;SDS011;5273;51.290;6.918;2022-08-21T02:42:27;14.70;;;6.53;;
10450;SDS011;5273;51.290;6.918;2022-08-21T02:44:55;9.73;;;6.22;;
10450;SDS011;5273;51.290;6.918;2022-08-21T02:47:23;11.45;;;6.75;;
10450;SDS011;5273;51.290;6.918;2022-08-21T02:49:50;14.73;;;6.35;;
10450;SDS011;5273;51.290;6.918;2022-08-21T02:52:18;11.48;;;6.45;;
10450;SDS011;5273;51.290;6.918;2022-08-21T02:54:46;12.50;;;7.07;;
10450;SDS011;5273;51.290;6.918;2022-08-21T02:57:13;11.98;;;7.10;;
10450;SDS011;5273;51.290;6.918;2022-08-21T02:59:40;13.10;;;6.20;;
10450;SDS011;5273;51.290;6.918;2022-08-21T03:02:07;9.32;;;6.55;;
10450;SDS011;5273;51.290;6.918;2022-08-21T03:04:35;11.05;;;6.80;;
10450;SDS011;5273;51.290;6.918;2022-08-21T03:07:02;9.63;;;5.50;;
10450;SDS011;5273;51.290;6.918;2022-08-21T03:09:29;9.45;;;6.30;;
10450;SDS011;5273;51.290;6.918;2022-08-21T03:11:56;12.20;;;6.72;;
10450;SDS011;5273;51.290;6.918;2022-08-21T03:14:23;9.13;;;6.90;;
10450;SDS011;5273;51.290;6.918;2022-08-21T03:16:50;12.63;;;6.35;;
10450;SDS011;5273;51.290;6.918;2022-08-21T03:19:17;18.08;;;7.13;;
10450;SDS011;5273;51.290;6.918;2022-08-21T03:21:45;13.27;;;7.68;;
10450;SDS011;5273;51.290;6.918;2022-08-21T03:24:12;10.45;;;7.35;;
10450;SDS011;5273;51.290;6.918;2022-08-21T03:26:39;11.73;;;7.43;;
10450;SDS011;5273;51.290;6.918;2022-08-21T03:29:06;18.02;;;7.50;;
10450;SDS011;5273;51.290;6.918;2022-08-21T03:31:33;10.75;;;6.90;;
10450;SDS011;5273;51.290;6.918;2022-08-21T03:34:00;13.63;;;7.40;;
10450;SDS011;5273;51.290;6.918;2022-08-21T03:36:26;12.45;;;7.60;;
10450;SDS011;5273;51.290;6.918;2022-08-21T03:38:55;21.70;;;8.05;;
10450;SDS011;5273;51.290;6.918;2022-08-21T03:41:22;13.25;;;8.40;;
10450;SDS011;5273;51.290;6.918;2022-08-21T03:43:49;15.40;;;8.35;;
10450;SDS011;5273;51.290;6.918;2022-08-21T03:46:15;11.40;;;8.02;;
10450;SDS011;5273;51.290;6.918;2022-08-21T03:48:42;18.27;;;10.10;;
10450;SDS011;5273;51.290;6.918;2022-08-21T03:51:09;17.15;;;9.43;;
10450;SDS011;5273;51.290;6.918;2022-08-21T03:53:36;14.45;;;9.57;;
10450;SDS011;5273;51.290;6.918;2022-08-21T03:56:04;17.05;;;9.77;;
10450;SDS011;5273;51.290;6.918;2022-08-21T03:58:32;13.18;;;8.95;;
10450;SDS011;5273;51.290;6.918;2022-08-21T04:00:59;15.35;;;11.15;;
10450;SDS011;5273;51.290;6.918;2022-08-21T04:03:27;14.80;;;11.00;;
10450;SDS011;5273;51.290;6.918;2022-08-21T04:05:54;14.07;;;10.07;;
10450;SDS011;5273;51.290;6.918;2022-08-21T04:08:21;17.80;;;11.50;;
10450;SDS011;5273;51.290;6.918;2022-08-21T04:10:49;16.80;;;11.27;;
10450;SDS011;5273;51.290;6.918;2022-08-21T04:13:20;15.20;;;11.15;;
10450;SDS011;5273;51.290;6.918;2022-08-21T04:15:48;20.42;;;11.57;;
10450;SDS011;5273;51.290;6.918;2022-08-21T04:18:15;18.55;;;11.93;;
10450;SDS011;5273;51.290;6.918;2022-08-21T04:20:43;16.38;;;11.07;;
10450;SDS011;5273;51.290;6.918;2022-08-21T04:23:12;20.30;;;11.43;;
10450;SDS011;5273;51.290;6.918;2022-08-21T04:25:39;19.63;;;11.70;;
10450;SDS011;5273;51.290;6.918;2022-08-21T04:28:05;22.52;;;12.80;;
10450;SDS011;5273;51.290;6.918;2022-08-21T04:30:34;15.55;;;11.90;;
10450;SDS011;5273;51.290;6.918;2022-08-21T04:33:00;15.23;;;11.23;;
10450;SDS011;5273;51.290;6.918;2022-08-21T04:35:28;15.82;;;11.10;;
10450;SDS011;5273;51.290;6.918;2022-08-21T04:37:56;19.17;;;11.40;;
10450;SDS011;5273;51.290;6.918;2022-08-21T04:40:24;20.70;;;11.50;;
10450;SDS011;5273;51.290;6.918;2022-08-21T04:42:53;14.07;;;9.75;;
10450;SDS011;5273;51.290;6.918;2022-08-21T04:45:23;17.48;;;11.13;;
10450;SDS011;5273;51.290;6.918;2022-08-21T04:47:53;17.83;;;10.98;;
10450;SDS011;5273;51.290;6.918;2022-08-21T04:50:22;17.58;;;12.80;;
10450;SDS011;5273;51.290;6.918;2022-08-21T04:52:52;17.02;;;12.30;;
10450;SDS011;5273;51.290;6.918;2022-08-21T04:55:19;16.45;;;11.27;;
10450;SDS011;5273;51.290;6.918;2022-08-21T04:57:47;18.00;;;12.20;;
10450;SDS011;5273;51.290;6.918;2022-08-21T05:00:18;17.08;;;11.98;;
10450;SDS011;5273;51.290;6.918;2022-08-21T05:02:45;19.15;;;11.88;;
10450;SDS011;5273;51.290;6.918;2022-08-21T05:05:15;18.33;;;11.80;;
10450;SDS011;5273;51.290;6.918;2022-08-21T05:07:43;18.58;;;12.60;;
10450;SDS011;5273;51.290;6.918;2022-08-21T05:10:11;16.75;;;12.02;;
10450;SDS011;5273;51.290;6.918;2022-08-21T05:12:39;17.95;;;11.63;;
10450;SDS011;5273;51.290;6.918;2022-08-21T05:15:07;22.05;;;10.90;;
10450;SDS011;5273;51.290;6.918;2022-08-21T05:17:36;18.85;;;11.95;;
10450;SDS011;5273;51.290;6.918;2022-08-21T05:20:03;16.60;;;11.93;;
10450;SDS011;5273;51.290;6.918;2022-08-21T05:22:32;15.73;;;11.68;;
10450;SDS011;5273;51.290;6.918;2022-08-21T05:24:59;17.75;;;12.10;;
10450;SDS011;5273;51.290;6.918;2022-08-21T05:27:26;14.25;;;11.52;;
10450;SDS011;5273;51.290;6.918;2022-08-21T05:29:54;16.45;;;12.25;;
10450;SDS011;5273;51.290;6.918;2022-08-21T05:32:21;18.25;;;11.40;;
10450;SDS011;5273;51.290;6.918;2022-08-21T05:34:49;18.10;;;10.88;;
10450;SDS011;5273;51.290;6.918;2022-08-21T05:37:15;17.90;;;11.63;;
10450;SDS011;5273;51.290;6.918;2022-08-21T05:39:44;13.93;;;10.70;;
10450;SDS011;5273;51.290;6.918;2022-08-21T05:42:11;22.88;;;11.05;;
10450;SDS011;5273;51.290;6.918;2022-08-21T05:44:37;19.27;;;10.73;;
10450;SDS011;5273;51.290;6.918;2022-08-21T05:47:05;16.80;;;11.70;;
10450;SDS011;5273;51.290;6.918;2022-08-21T05:49:32;15.50;;;11.20;;
10450;SDS011;5273;51.290;6.918;2022-08-21T05:52:00;14.27;;;10.95;;
10450;SDS011;5273;51.290;6.918;2022-08-21T05:54:27;19.30;;;11.40;;
10450;SDS011;5273;51.290;6.918;2022-08-21T05:56:55;19.42;;;11.88;;
10450;SDS011;5273;51.290;6.918;2022-08-21T05:59:23;16.33;;;10.57;;
10450;SDS011;5273;51.290;6.918;2022-08-21T06:01:50;13.55;;;10.80;;
10450;SDS011;5273;51.290;6.918;2022-08-21T06:04:17;17.67;;;11.05;;
10450;SDS011;5273;51.290;6.918;2022-08-21T06:06:45;16.05;;;10.98;;
10450;SDS011;5273;51.290;6.918;2022-08-21T06:09:12;13.13;;;9.80;;
10450;SDS011;5273;51.290;6.918;2022-08-21T06:11:39;13.38;;;9.90;;
10450;SDS011;5273;51.290;6.918;2022-08-21T06:14:07;14.55;;;9.80;;
10450;SDS011;5273;51.290;6.918;2022-08-21T06:16:34;18.40;;;9.23;;
10450;SDS011;5273;51.290;6.918;2022-08-21T06:19:01;14.50;;;9.00;;
10450;SDS011;5273;51.290;6.918;2022-08-21T06:21:28;15.27;;;9.43;;
10450;SDS011;5273;51.290;6.918;2022-08-21T06:23:54;15.25;;;9.23;;
10450;SDS011;5273;51.290;6.918;2022-08-21T06:26:21;12.57;;;9.00;;
10450;SDS011;5273;51.290;6.918;2022-08-21T06:28:48;14.60;;;9.18;;
10450;SDS011;5273;51.290;6.918;2022-08-21T06:31:17;11.93;;;8.43;;
10450;SDS011;5273;51.290;6.918;2022-08-21T06:33:46;14.07;;;9.05;;
10450;SDS011;5273;51.290;6.918;2022-08-21T06:36:14;12.30;;;8.60;;
10450;SDS011;5273;51.290;6.918;2022-08-21T06:38:41;14.35;;;6.47;;
10450;SDS011;5273;51.290;6.918;2022-08-21T06:41:07;10.15;;;6.22;;
10450;SDS011;5273;51.290;6.918;2022-08-21T06:43:35;11.88;;;7.03;;
10450;SDS011;5273;51.290;6.918;2022-08-21T06:46:02;9.15;;;6.38;;
10450;SDS011;5273;51.290;6.918;2022-08-21T06:48:30;7.93;;;5.88;;
10450;SDS011;5273;51.290;6.918;2022-08-21T06:50:59;12.93;;;5.88;;
10450;SDS011;5273;51.290;6.918;2022-08-21T06:53:26;7.38;;;5.38;;
10450;SDS011;5273;51.290;6.918;2022-08-21T06:55:53;10.18;;;5.80;;
10450;SDS011;5273;51.290;6.918;2022-08-21T06:58:20;10.85;;;5.50;;
10450;SDS011;5273;51.290;6.918;2022-08-21T07:00:47;7.63;;;5.43;;
10450;SDS011;5273;51.290;6.918;2022-08-21T07:03:17;9.32;;;5.28;;
10450;SDS011;5273;51.290;6.918;2022-08-21T07:05:46;8.55;;;5.03;;
10450;SDS011;5273;51.290;6.918;2022-08-21T07:08:13;9.48;;;5.10;;
10450;SDS011;5273;51.290;6.918;2022-08-21T07:10:40;10.70;;;5.68;;
10450;SDS011;5273;51.290;6.918;2022-08-21T07:13:07;10.93;;;4.90;;
10450;SDS011;5273;51.290;6.918;2022-08-21T07:15:34;7.68;;;4.55;;
10450;SDS011;5273;51.290;6.918;2022-08-21T07:18:01;8.98;;;5.32;;
10450;SDS011;5273;51.290;6.918;2022-08-21T07:20:28;8.57;;;5.03;;
10450;SDS011;5273;51.290;6.918;2022-08-21T07:22:58;6.82;;;4.97;;
10450;SDS011;5273;51.290;6.918;2022-08-21T07:25:27;7.57;;;5.20;;
10450;SDS011;5273;51.290;6.918;2022-08-21T07:27:54;8.52;;;5.22;;
10450;SDS011;5273;51.290;6.918;2022-08-21T07:30:21;5.82;;;4.40;;
10450;SDS011;5273;51.290;6.918;2022-08-21T07:32:48;6.20;;;4.70;;
10450;SDS011;5273;51.290;6.918;2022-08-21T07:35:16;7.03;;;4.55;;
10450;SDS011;5273;51.290;6.918;2022-08-21T07:37:43;9.65;;;4.90;;
10450;SDS011;5273;51.290;6.918;2022-08-21T07:40:12;7.97;;;4.50;;
10450;SDS011;5273;51.290;6.918;2022-08-21T07:42:39;6.47;;;5.00;;
10450;SDS011;5273;51.290;6.918;2022-08-21T07:45:07;5.93;;;4.13;;
10450;SDS011;5273;51.290;6.918;2022-08-21T07:47:34;6.93;;;4.00;;
10450;SDS011;5273;51.290;6.918;2022-08-21T07:50:02;8.05;;;4.30;;
10450;SDS011;5273;51.290;6.918;2022-08-21T07:52:30;6.38;;;4.28;;
10450;SDS011;5273;51.290;6.918;2022-08-21T07:54:57;6.80;;;4.30;;
10450;SDS011;5273;51.290;6.918;2022-08-21T07:57:25;8.48;;;4.22;;
10450;SDS011;5273;51.290;6.918;2022-08-21T07:59:52;7.70;;;3.67;;
10450;SDS011;5273;51.290;6.918;2022-08-21T08:02:23;5.65;;;3.38;;
10450;SDS011;5273;51.290;6.918;2022-08-21T08:04:50;5.60;;;2.90;;
10450;SDS011;5273;51.290;6.918;2022-08-21T08:07:17;5.60;;;2.88;;
10450;SDS011;5273;51.290;6.918;2022-08-21T08:09:44;4.47;;;2.80;;
10450;SDS011;5273;51.290;6.918;2022-08-21T08:12:11;5.20;;;2.75;;
10450;SDS011;5273;51.290;6.918;2022-08-21T08:14:40;3.63;;;2.28;;
10450;SDS011;5273;51.290;6.918;2022-08-21T08:17:07;5.82;;;2.50;;
10450;SDS011;5273;51.290;6.918;2022-08-21T08:19:33;6.13;;;2.50;;
10450;SDS011;5273;51.290;6.918;2022-08-21T08:22:00;6.38;;;2.38;;
10450;SDS011;5273;51.290;6.918;2022-08-21T08:24:27;4.32;;;2.28;;
10450;SDS011;5273;51.290;6.918;2022-08-21T08:26:54;6.75;;;2.35;;
10450;SDS011;5273;51.290;6.918;2022-08-21T08:29:22;4.63;;;2.03;;
10450;SDS011;5273;51.290;6.918;2022-08-21T08:31:50;4.28;;;2.28;;
10450;SDS011;5273;51.290;6.918;2022-08-21T08:34:17;4.78;;;2.30;;
10450;SDS011;5273;51.290;6.918;2022-08-21T08:36:44;3.58;;;2.20;;
10450;SDS011;5273;51.290;6.918;2022-08-21T08:39:12;3.63;;;2.22;;
10450;SDS011;5273;51.290;6.918;2022-08-21T08:41:39;4.75;;;2.47;;
10450;SDS011;5273;51.290;6.918;2022-08-21T08:44:07;4.30;;;2.40;;
10450;SDS011;5273;51.290;6.918;2022-08-21T08:46:35;5.95;;;2.47;;
10450;SDS011;5273;51.290;6.918;2022-08-21T08:49:08;5.38;;;2.33;;
10450;SDS011;5273;51.290;6.918;2022-08-21T08:51:41;4.00;;;2.13;;
10450;SDS011;5273;51.290;6.918;2022-08-21T08:54:13;5.32;;;2.15;;
10450;SDS011;5273;51.290;6.918;2022-08-21T08:56:45;5.55;;;2.33;;
10450;SDS011;5273;51.290;6.918;2022-08-21T08:59:13;3.88;;;2.00;;
10450;SDS011;5273;51.290;6.918;2022-08-21T09:01:44;4.78;;;2.08;;
10450;SDS011;5273;51.290;6.918;2022-08-21T09:04:12;3.13;;;2.10;;
10450;SDS011;5273;51.290;6.918;2022-08-21T09:06:46;4.97;;;2.08;;
10450;SDS011;5273;51.290;6.918;2022-08-21T09:09:25;3.83;;;1.90;;
10450;SDS011;5273;51.290;6.918;2022-08-21T09:12:02;3.97;;;2.10;;
10450;SDS011;5273;51.290;6.918;2022-08-21T09:14:37;5.05;;;1.90;;
10450;SDS011;5273;51.290;6.918;2022-08-21T09:17:29;4.97;;;1.63;;
10450;SDS011;5273;51.290;6.918;2022-08-21T09:20:11;2.50;;;1.75;;
10450;SDS011;5273;51.290;6.918;2022-08-21T09:22:48;4.65;;;1.65;;
10450;SDS011;5273;51.290;6.918;2022-08-21T09:25:25;4.00;;;1.83;;
10450;SDS011;5273;51.290;6.918;2022-08-21T09:27:53;7.38;;;1.92;;
10450;SDS011;5273;51.290;6.918;2022-08-21T09:30:24;2.22;;;1.58;;
10450;SDS011;5273;51.290;6.918;2022-08-21T09:32:54;2.58;;;1.70;;
10450;SDS011;5273;51.290;6.918;2022-08-21T09:35:23;2.88;;;1.65;;
10450;SDS011;5273;51.290;6.918;2022-08-21T09:37:52;3.25;;;1.65;;
10450;SDS011;5273;51.290;6.918;2022-08-21T09:40:29;3.47;;;1.88;;
10450;SDS011;5273;51.290;6.918;2022-08-21T09:42:59;3.97;;;1.60;;
10450;SDS011;5273;51.290;6.918;2022-08-21T09:45:29;3.10;;;1.77;;
10450;SDS011;5273;51.290;6.918;2022-08-21T09:48:07;4.80;;;1.80;;
10450;SDS011;5273;51.290;6.918;2022-08-21T09:50:36;3.05;;;1.75;;
10450;SDS011;5273;51.290;6.918;2022-08-21T09:53:03;3.22;;;1.60;;
10450;SDS011;5273;51.290;6.918;2022-08-21T09:55:32;3.65;;;1.73;;
10450;SDS011;5273;51.290;6.918;2022-08-21T09:58:29;3.38;;;1.70;;
10450;SDS011;5273;51.290;6.918;2022-08-21T10:00:58;3.60;;;1.95;;
10450;SDS011;5273;51.290;6.918;2022-08-21T10:03:33;2.22;;;1.65;;
10450;SDS011;5273;51.290;6.918;2022-08-21T10:06:08;3.38;;;2.30;;
10450;SDS011;5273;51.290;6.918;2022-08-21T10:08:37;2.97;;;1.70;;
10450;SDS011;5273;51.290;6.918;2022-08-21T10:11:06;2.70;;;1.63;;
10450;SDS011;5273;51.290;6.918;2022-08-21T10:13:39;2.50;;;1.80;;
10450;SDS011;5273;51.290;6.918;2022-08-21T10:16:21;3.97;;;2.03;;
10450;SDS011;5273;51.290;6.918;2022-08-21T10:18:56;5.38;;;1.80;;
10450;SDS011;5273;51.290;6.918;2022-08-21T10:21:38;2.67;;;1.65;;
10450;SDS011;5273;51.290;6.918;2022-08-21T10:24:11;4.20;;;1.77;;
10450;SDS011;5273;51.290;6.918;2022-08-21T10:26:52;3.15;;;1.70;;
10450;SDS011;5273;51.290;6.918;2022-08-21T10:29:37;4.07;;;1.90;;
10450;SDS011;5273;51.290;6.918;2022-08-21T10:32:14;7.60;;;2.38;;
10450;SDS011;5273;51.290;6.918;2022-08-21T10:35:02;3.47;;;1.67;;
10450;SDS011;5273;51.290;6.918;2022-08-21T10:37:39;4.25;;;1.95;;
10450;SDS011;5273;51.290;6.918;2022-08-21T10:40:15;3.25;;;1.67;;
10450;SDS011;5273;51.290;6.918;2022-08-21T10:42:49;2.45;;;1.55;;
10450;SDS011;5273;51.290;6.918;2022-08-21T10:45:27;2.45;;;1.50;;
10450;SDS011;5273;51.290;6.918;2022-08-21T10:48:07;2.65;;;1.90;;
10450;SDS011;5273;51.290;6.918;2022-08-21T10:50:44;3.45;;;1.80;;
10450;SDS011;5273;51.290;6.918;2022-08-21T10:53:36;3.13;;;1.67;;
10450;SDS011;5273;51.290;6.918;2022-08-21T10:56:19;5.75;;;2.28;;
10450;SDS011;5273;51.290;6.918;2022-08-21T10:58:53;4.90;;;2.00;;
10450;SDS011;5273;51.290;6.918;2022-08-21T11:01:30;2.88;;;1.77;;
10450;SDS011;5273;51.290;6.918;2022-08-21T11:04:04;5.00;;;1.80;;
10450;SDS011;5273;51.290;6.918;2022-08-21T11:06:38;3.45;;;1.50;;
10450;SDS011;5273;51.290;6.918;2022-08-21T11:09:13;3.65;;;1.42;;
10450;SDS011;5273;51.290;6.918;2022-08-21T11:11:44;3.90;;;1.63;;
10450;SDS011;5273;51.290;6.918;2022-08-21T11:14:17;2.85;;;1.40;;
10450;SDS011;5273;51.290;6.918;2022-08-21T11:16:53;4.50;;;1.55;;
10450;SDS011;5273;51.290;6.918;2022-08-21T11:19:28;3.40;;;1.60;;
10450;SDS011;5273;51.290;6.918;2022-08-21T11:21:58;5.82;;;1.45;;
10450;SDS011;5273;51.290;6.918;2022-08-21T11:24:35;3.40;;;1.75;;
10450;SDS011;5273;51.290;6.918;2022-08-21T11:27:12;5.28;;;1.88;;
10450;SDS011;5273;51.290;6.918;2022-08-21T11:29:46;4.40;;;1.70;;
10450;SDS011;5273;51.290;6.918;2022-08-21T11:32:30;4.10;;;1.85;;
10450;SDS011;5273;51.290;6.918;2022-08-21T11:35:25;2.90;;;1.58;;
10450;SDS011;5273;51.290;6.918;2022-08-21T11:38:02;3.58;;;1.70;;
10450;SDS011;5273;51.290;6.918;2022-08-21T11:40:39;4.45;;;1.83;;
10450;SDS011;5273;51.290;6.918;2022-08-21T11:43:17;2.78;;;1.52;;
10450;SDS011;5273;51.290;6.918;2022-08-21T11:45:49;3.08;;;1.77;;
10450;SDS011;5273;51.290;6.918;2022-08-21T11:48:22;5.35;;;1.90;;
10450;SDS011;5273;51.290;6.918;2022-08-21T11:50:58;5.07;;;2.00;;
10450;SDS011;5273;51.290;6.918;2022-08-21T11:53:33;3.60;;;1.92;;
10450;SDS011;5273;51.290;6.918;2022-08-21T11:56:07;3.58;;;1.80;;
10450;SDS011;5273;51.290;6.918;2022-08-21T11:58:39;5.97;;;1.25;;
10450;SDS011;5273;51.290;6.918;2022-08-21T12:01:09;4.88;;;1.90;;
10450;SDS011;5273;51.290;6.918;2022-08-21T12:03:41;2.80;;;1.52;;
10450;SDS011;5273;51.290;6.918;2022-08-21T12:06:26;3.70;;;1.67;;
10450;SDS011;5273;51.290;6.918;2022-08-21T12:08:57;3.42;;;1.77;;
10450;SDS011;5273;51.290;6.918;2022-08-21T12:11:27;5.47;;;1.83;;
10450;SDS011;5273;51.290;6.918;2022-08-21T12:13:55;3.83;;;1.77;;
10450;SDS011;5273;51.290;6.918;2022-08-21T12:16:29;2.97;;;1.52;;
10450;SDS011;5273;51.290;6.918;2022-08-21T12:19:04;4.10;;;1.80;;
10450;SDS011;5273;51.290;6.918;2022-08-21T12:21:33;3.60;;;1.77;;
10450;SDS011;5273;51.290;6.918;2022-08-21T12:24:16;3.47;;;1.98;;
10450;SDS011;5273;51.290;6.918;2022-08-21T12:26:49;3.13;;;1.80;;
10450;SDS011;5273;51.290;6.918;2022-08-21T12:29:22;2.70;;;1.50;;
10450;SDS011;5273;51.290;6.918;2022-08-21T12:31:53;4.18;;;1.65;;
10450;SDS011;5273;51.290;6.918;2022-08-21T12:34:29;3.17;;;1.45;;
10450;SDS011;5273;51.290;6.918;2022-08-21T12:37:00;3.67;;;1.58;;
10450;SDS011;5273;51.290;6.918;2022-08-21T12:39:31;2.67;;;1.27;;
10450;SDS011;5273;51.290;6.918;2022-08-21T12:42:03;3.08;;;1.70;;
10450;SDS011;5273;51.290;6.918;2022-08-21T12:44:35;2.67;;;1.70;;
10450;SDS011;5273;51.290;6.918;2022-08-21T12:47:11;3.28;;;1.30;;
10450;SDS011;5273;51.290;6.918;2022-08-21T12:49:43;3.22;;;1.90;;
10450;SDS011;5273;51.290;6.918;2022-08-21T12:52:21;1.85;;;1.40;;
10450;SDS011;5273;51.290;6.918;2022-08-21T12:54:49;3.95;;;1.50;;
10450;SDS011;5273;51.290;6.918;2022-08-21T12:57:19;2.05;;;1.15;;
10450;SDS011;5273;51.290;6.918;2022-08-21T12:59:51;5.75;;;1.60;;
10450;SDS011;5273;51.290;6.918;2022-08-21T13:02:20;3.95;;;1.60;;
10450;SDS011;5273;51.290;6.918;2022-08-21T13:04:49;3.97;;;1.52;;
10450;SDS011;5273;51.290;6.918;2022-08-21T13:07:20;3.10;;;1.45;;
10450;SDS011;5273;51.290;6.918;2022-08-21T13:09:53;1.98;;;1.00;;
10450;SDS011;5273;51.290;6.918;2022-08-21T13:12:23;3.35;;;1.50;;
10450;SDS011;5273;51.290;6.918;2022-08-21T13:14:51;3.60;;;1.50;;
10450;SDS011;5273;51.290;6.918;2022-08-21T13:17:21;3.53;;;1.60;;
10450;SDS011;5273;51.290;6.918;2022-08-21T13:19:52;4.60;;;1.63;;
10450;SDS011;5273;51.290;6.918;2022-08-21T13:22:20;3.15;;;1.35;;
10450;SDS011;5273;51.290;6.918;2022-08-21T13:24:47;5.45;;;1.65;;
10450;SDS011;5273;51.290;6.918;2022-08-21T13:27:16;2.78;;;1.40;;
10450;SDS011;5273;51.290;6.918;2022-08-21T13:29:47;4.30;;;1.55;;
10450;SDS011;5273;51.290;6.918;2022-08-21T13:32:18;3.20;;;1.50;;
10450;SDS011;5273;51.290;6.918;2022-08-21T13:34:49;1.98;;;1.15;;
10450;SDS011;5273;51.290;6.918;2022-08-21T13:37:16;1.92;;;1.55;;
10450;SDS011;5273;51.290;6.918;2022-08-21T13:39:48;2.50;;;1.50;;
10450;SDS011;5273;51.290;6.918;2022-08-21T13:42:15;3.40;;;1.75;;
10450;SDS011;5273;51.290;6.918;2022-08-21T13:44:43;3.53;;;1.65;;
10450;SDS011;5273;51.290;6.918;2022-08-21T13:47:13;4.00;;;1.52;;
10450;SDS011;5273;51.290;6.918;2022-08-21T13:49:43;2.40;;;1.13;;
10450;SDS011;5273;51.290;6.918;2022-08-21T13:52:16;1.65;;;1.27;;
10450;SDS011;5273;51.290;6.918;2022-08-21T13:54:51;2.50;;;1.08;;
10450;SDS011;5273;51.290;6.918;2022-08-21T13:57:24;4.28;;;1.55;;
10450;SDS011;5273;51.290;6.918;2022-08-21T13:59:52;4.63;;;1.67;;
10450;SDS011;5273;51.290;6.918;2022-08-21T14:02:20;3.53;;;1.40;;
10450;SDS011;5273;51.290;6.918;2022-08-21T14:04:51;3.70;;;1.50;;
10450;SDS011;5273;51.290;6.918;2022-08-21T14:07:23;2.78;;;1.15;;
10450;SDS011;5273;51.290;6.918;2022-08-21T14:09:52;4.72;;;1.23;;
10450;SDS011;5273;51.290;6.918;2022-08-21T14:12:24;3.38;;;1.70;;
10450;SDS011;5273;51.290;6.918;2022-08-21T14:14:53;1.48;;;1.23;;
10450;SDS011;5273;51.290;6.918;2022-08-21T14:17:28;3.40;;;1.30;;
10450;SDS011;5273;51.290;6.918;2022-08-21T14:19:59;3.47;;;1.42;;
10450;SDS011;5273;51.290;6.918;2022-08-21T14:22:30;4.30;;;1.27;;
10450;SDS011;5273;51.290;6.918;2022-08-21T14:25:04;3.75;;;1.45;;
10450;SDS011;5273;51.290;6.918;2022-08-21T14:27:34;4.97;;;1.60;;
10450;SDS011;5273;51.290;6.918;2022-08-21T14:30:09;2.75;;;1.15;;
10450;SDS011;5273;51.290;6.918;2022-08-21T14:32:40;4.25;;;1.40;;
10450;SDS011;5273;51.290;6.918;2022-08-21T14:35:07;4.93;;;1.40;;
10450;SDS011;5273;51.290;6.918;2022-08-21T14:37:35;2.38;;;1.23;;
10450;SDS011;5273;51.290;6.918;2022-08-21T14:40:03;3.22;;;1.42;;
10450;SDS011;5273;51.290;6.918;2022-08-21T14:42:30;1.63;;;1.10;;
10450;SDS011;5273;51.290;6.918;2022-08-21T14:44:59;1.92;;;1.15;;
10450;SDS011;5273;51.290;6.918;2022-08-21T14:47:31;4.63;;;1.77;;
10450;SDS011;5273;51.290;6.918;2022-08-21T14:49:59;1.73;;;1.40;;
10450;SDS011;5273;51.290;6.918;2022-08-21T14:52:26;2.80;;;1.35;;
10450;SDS011;5273;51.290;6.918;2022-08-21T14:54:53;2.10;;;1.20;;
10450;SDS011;5273;51.290;6.918;2022-08-21T14:57:20;4.55;;;1.38;;
10450;SDS011;5273;51.290;6.918;2022-08-21T14:59:47;2.72;;;1.17;;
10450;SDS011;5273;51.290;6.918;2022-08-21T15:02:14;2.85;;;1.20;;
10450;SDS011;5273;51.290;6.918;2022-08-21T15:04:41;2.63;;;1.55;;
10450;SDS011;5273;51.290;6.918;2022-08-21T15:07:09;1.70;;;1.10;;
10450;SDS011;5273;51.290;6.918;2022-08-21T15:09:36;3.95;;;1.20;;
10450;SDS011;5273;51.290;6.918;2022-08-21T15:12:03;1.45;;;1.17;;